sensor_id;sensor_type;location;lat;lon;timestamp;pressure;altitude;pressure_sealevel;temperature;humidity
37066;BME280;22981;43.080;25.550;2023-05-23T00:02:11;99353.13;;;12.66;79.85
37066;BME280;22981;43.080;25.550;2023-05-23T00:04:40;99350.91;;;12.63;79.85
37066;BME280;22981;43.080;25.550;2023-05-23T00:07:08;99355.95;;;12.60;79.88
37066;BME280;22981;43.080;25.550;2023-05-23T00:09:36;99356.98;;;12.59;79.86
37066;BME280;22981;43.080;25.550;2023-05-23T00:12:04;99356.70;;;12.58;80.02
37066;BME280;22981;43.080;25.550;2023-05-23T00:14:32;99353.80;;;12.59;80.04
37066;BME280;22981;43.080;25.550;2023-05-23T00:17:00;99352.11;;;12.56;79.99
37066;BME280;22981;43.080;25.550;2023-05-23T00:19:28;99355.95;;;12.48;79.99
37066;BME280;22981;43.080;25.550;2023-05-23T00:21:55;99343.94;;;12.39;79.99
37066;BME280;22981;43.080;25.550;2023-05-23T00:24:23;99348.08;;;12.32;80.10
37066;BME280;22981;43.080;25.550;2023-05-23T00:26:51;99345.39;;;12.32;80.25
37066;BME280;22981;43.080;25.550;2023-05-23T00:29:18;99345.67;;;12.33;80.26
37066;BME280;22981;43.080;25.550;2023-05-23T00:31:46;99343.30;;;12.34;80.31
37066;BME280;22981;43.080;25.550;2023-05-23T00:34:15;99339.03;;;12.36;80.34
37066;BME280;22981;43.080;25.550;2023-05-23T00:36:45;99345.50;;;12.37;80.20
37066;BME280;22981;43.080;25.550;2023-05-23T00:39:16;99344.76;;;12.39;80.10
37066;BME280;22981;43.080;25.550;2023-05-23T00:41:51;99335.40;;;12.42;79.91
37066;BME280;22981;43.080;25.550;2023-05-23T00:44:16;99339.67;;;12.40;79.80
37066;BME280;22981;43.080;25.550;2023-05-23T00:46:48;99330.63;;;12.32;79.89
37066;BME280;22981;43.080;25.550;2023-05-23T00:49:15;99337.69;;;12.24;80.18
37066;BME280;22981;43.080;25.550;2023-05-23T00:51:45;99336.48;;;12.17;80.39
37066;BME280;22981;43.080;25.550;2023-05-23T00:54:17;99339.97;;;12.18;80.53
37066;BME280;22981;43.080;25.550;2023-05-23T00:56:44;99339.20;;;12.20;80.44
37066;BME280;22981;43.080;25.550;2023-05-23T00:59:13;99340.26;;;12.19;80.44
37066;BME280;22981;43.080;25.550;2023-05-23T01:01:42;99342.12;;;12.18;80.41
37066;BME280;22981;43.080;25.550;2023-05-23T01:04:12;99338.10;;;12.18;80.27
37066;BME280;22981;43.080;25.550;2023-05-23T01:06:40;99344.53;;;12.17;80.10
37066;BME280;22981;43.080;25.550;2023-05-23T01:09:09;99349.02;;;12.14;80.01
37066;BME280;22981;43.080;25.550;2023-05-23T01:14:30;99345.23;;;12.13;80.15
37066;BME280;22981;43.080;25.550;2023-05-23T01:17:00;99344.34;;;12.10;80.10
37066;BME280;22981;43.080;25.550;2023-05-23T01:19:50;99343.81;;;12.10;80.10
37066;BME280;22981;43.080;25.550;2023-05-23T01:27:52;99348.94;;;12.12;79.86
37066;BME280;22981;43.080;25.550;2023-05-23T01:30:23;99349.02;;;12.14;79.86
37066;BME280;22981;43.080;25.550;2023-05-23T01:32:54;99348.72;;;12.13;79.87
37066;BME280;22981;43.080;25.550;2023-05-23T01:35:26;99290.15;;;11.66;79.98
37066;BME280;22981;43.080;25.550;2023-05-23T01:37:55;99349.05;;;11.93;80.37
37066;BME280;22981;43.080;25.550;2023-05-23T01:40:24;99351.53;;;11.86;80.58
37066;BME280;22981;43.080;25.550;2023-05-23T01:42:53;99356.45;;;11.79;80.78
37066;BME280;22981;43.080;25.550;2023-05-23T01:45:21;99353.53;;;11.81;80.87
37066;BME280;22981;43.080;25.550;2023-05-23T01:47:50;99351.66;;;11.82;81.02
37066;BME280;22981;43.080;25.550;2023-05-23T01:50:18;99352.38;;;11.86;80.87
37066;BME280;22981;43.080;25.550;2023-05-23T01:52:47;99351.48;;;11.83;80.48
37066;BME280;22981;43.080;25.550;2023-05-23T01:55:16;99354.92;;;11.72;80.61
37066;BME280;22981;43.080;25.550;2023-05-23T01:57:52;99354.50;;;11.66;80.81
37066;BME280;22981;43.080;25.550;2023-05-23T02:00:19;99352.03;;;11.64;80.84
37066;BME280;22981;43.080;25.550;2023-05-23T02:02:47;99356.74;;;11.60;80.93
37066;BME280;22981;43.080;25.550;2023-05-23T02:05:14;99357.92;;;11.64;80.86
37066;BME280;22981;43.080;25.550;2023-05-23T02:07:42;99362.07;;;11.69;80.72
37066;BME280;22981;43.080;25.550;2023-05-23T02:10:10;99360.07;;;11.73;80.62
37066;BME280;22981;43.080;25.550;2023-05-23T02:12:37;99360.72;;;11.78;80.49
37066;BME280;22981;43.080;25.550;2023-05-23T02:15:05;99362.06;;;11.78;80.44
37066;BME280;22981;43.080;25.550;2023-05-23T02:17:34;99366.13;;;11.81;80.35
37066;BME280;22981;43.080;25.550;2023-05-23T02:20:01;99362.39;;;11.82;80.27
37066;BME280;22981;43.080;25.550;2023-05-23T02:22:29;99369.94;;;11.82;80.18
37066;BME280;22981;43.080;25.550;2023-05-23T02:24:57;99367.34;;;11.85;80.11
37066;BME280;22981;43.080;25.550;2023-05-23T02:27:24;99365.19;;;11.84;80.03
37066;BME280;22981;43.080;25.550;2023-05-23T02:29:52;99367.58;;;11.83;79.98
37066;BME280;22981;43.080;25.550;2023-05-23T02:32:19;99371.20;;;11.79;80.02
37066;BME280;22981;43.080;25.550;2023-05-23T02:34:47;99364.75;;;11.69;79.96
37066;BME280;22981;43.080;25.550;2023-05-23T02:37:15;99367.18;;;11.59;80.21
37066;BME280;22981;43.080;25.550;2023-05-23T02:39:43;99365.48;;;11.55;80.54
37066;BME280;22981;43.080;25.550;2023-05-23T02:42:10;99370.11;;;11.57;80.63
37066;BME280;22981;43.080;25.550;2023-05-23T02:44:38;99367.47;;;11.60;80.58
37066;BME280;22981;43.080;25.550;2023-05-23T02:47:05;99368.89;;;11.62;80.43
37066;BME280;22981;43.080;25.550;2023-05-23T02:49:33;99374.25;;;11.62;80.38
37066;BME280;22981;43.080;25.550;2023-05-23T02:52:01;99368.81;;;11.60;80.40
37066;BME280;22981;43.080;25.550;2023-05-23T02:54:28;99371.13;;;11.56;80.50
37066;BME280;22981;43.080;25.550;2023-05-23T02:56:56;99373.67;;;11.51;80.54
37066;BME280;22981;43.080;25.550;2023-05-23T02:59:24;99379.52;;;11.48;80.58
37066;BME280;22981;43.080;25.550;2023-05-23T03:01:52;99377.57;;;11.46;80.56
37066;BME280;22981;43.080;25.550;2023-05-23T03:04:20;99374.59;;;11.45;80.66
37066;BME280;22981;43.080;25.550;2023-05-23T03:06:47;99370.34;;;11.46;80.69
37066;BME280;22981;43.080;25.550;2023-05-23T03:09:15;99366.40;;;11.49;80.70
37066;BME280;22981;43.080;25.550;2023-05-23T03:11:43;99370.47;;;11.51;80.67
37066;BME280;22981;43.080;25.550;2023-05-23T03:14:11;99369.20;;;11.54;80.57
37066;BME280;22981;43.080;25.550;2023-05-23T03:16:38;99372.99;;;11.56;80.41
37066;BME280;22981;43.080;25.550;2023-05-23T03:19:06;99377.91;;;11.59;80.35
37066;BME280;22981;43.080;25.550;2023-05-23T03:21:34;99373.89;;;11.59;80.26
37066;BME280;22981;43.080;25.550;2023-05-23T03:24:01;99379.25;;;11.59;80.37
37066;BME280;22981;43.080;25.550;2023-05-23T03:26:29;99376.20;;;11.55;80.29
37066;BME280;22981;43.080;25.550;2023-05-23T03:28:56;99375.94;;;11.45;80.45
37066;BME280;22981;43.080;25.550;2023-05-23T03:31:24;99377.16;;;11.40;80.75
37066;BME280;22981;43.080;25.550;2023-05-23T03:33:51;99384.37;;;11.39;80.81
37066;BME280;22981;43.080;25.550;2023-05-23T03:36:19;99387.92;;;11.42;80.74
37066;BME280;22981;43.080;25.550;2023-05-23T03:38:47;99385.19;;;11.40;80.70
37066;BME280;22981;43.080;25.550;2023-05-23T03:41:14;99379.75;;;11.37;80.85
37066;BME280;22981;43.080;25.550;2023-05-23T03:43:42;99386.61;;;11.33;80.95
37066;BME280;22981;43.080;25.550;2023-05-23T03:46:10;99389.05;;;11.35;80.96
37066;BME280;22981;43.080;25.550;2023-05-23T03:48:37;99384.53;;;11.35;80.95
37066;BME280;22981;43.080;25.550;2023-05-23T03:51:05;99386.73;;;11.38;80.92
37066;BME280;22981;43.080;25.550;2023-05-23T03:53:32;99391.66;;;11.41;80.80
37066;BME280;22981;43.080;25.550;2023-05-23T03:56:00;99387.79;;;11.37;80.77
37066;BME280;22981;43.080;25.550;2023-05-23T03:58:28;99393.98;;;11.28;80.85
37066;BME280;22981;43.080;25.550;2023-05-23T04:00:55;99396.24;;;11.22;81.09
37066;BME280;22981;43.080;25.550;2023-05-23T04:03:23;99395.39;;;11.22;81.21
37066;BME280;22981;43.080;25.550;2023-05-23T04:05:51;99397.11;;;11.25;81.14
37066;BME280;22981;43.080;25.550;2023-05-23T04:08:19;99401.79;;;11.30;80.95
37066;BME280;22981;43.080;25.550;2023-05-23T04:10:47;99401.06;;;11.32;80.93
37066;BME280;22981;43.080;25.550;2023-05-23T04:13:15;99395.46;;;11.34;81.06
37066;BME280;22981;43.080;25.550;2023-05-23T04:15:42;99396.88;;;11.36;81.12
37066;BME280;22981;43.080;25.550;2023-05-23T04:18:11;99400.52;;;11.42;81.11
37066;BME280;22981;43.080;25.550;2023-05-23T04:20:41;99397.39;;;11.45;81.02
37066;BME280;22981;43.080;25.550;2023-05-23T04:23:08;99410.27;;;11.45;81.19
37066;BME280;22981;43.080;25.550;2023-05-23T04:25:36;99405.30;;;11.40;81.44
37066;BME280;22981;43.080;25.550;2023-05-23T04:28:05;99406.92;;;11.41;81.54
37066;BME280;22981;43.080;25.550;2023-05-23T04:30:33;99411.09;;;11.37;81.61
37066;BME280;22981;43.080;25.550;2023-05-23T04:33:00;99414.30;;;11.36;81.68
37066;BME280;22981;43.080;25.550;2023-05-23T04:35:28;99412.58;;;11.42;81.68
37066;BME280;22981;43.080;25.550;2023-05-23T04:37:57;99415.70;;;11.48;81.68
37066;BME280;22981;43.080;25.550;2023-05-23T04:40:25;99420.52;;;11.58;81.68
37066;BME280;22981;43.080;25.550;2023-05-23T04:42:52;99424.14;;;11.63;81.66
37066;BME280;22981;43.080;25.550;2023-05-23T04:45:22;99419.16;;;11.67;81.89
37066;BME280;22981;43.080;25.550;2023-05-23T04:47:51;99419.80;;;11.71;81.94
37066;BME280;22981;43.080;25.550;2023-05-23T04:50:23;99414.00;;;11.74;81.93
37066;BME280;22981;43.080;25.550;2023-05-23T04:52:52;99417.54;;;11.77;82.00
37066;BME280;22981;43.080;25.550;2023-05-23T04:55:20;99420.83;;;11.79;82.17
37066;BME280;22981;43.080;25.550;2023-05-23T04:57:48;99424.44;;;11.83;82.39
37066;BME280;22981;43.080;25.550;2023-05-23T05:00:16;99422.69;;;11.88;82.52
37066;BME280;22981;43.080;25.550;2023-05-23T05:02:45;99423.70;;;11.96;82.50
37066;BME280;22981;43.080;25.550;2023-05-23T05:05:14;99423.09;;;12.03;82.52
37066;BME280;22981;43.080;25.550;2023-05-23T05:07:44;99425.66;;;12.10;82.67
37066;BME280;22981;43.080;25.550;2023-05-23T05:10:11;99428.58;;;12.20;82.85
37066;BME280;22981;43.080;25.550;2023-05-23T05:12:42;99432.27;;;12.28;82.84
37066;BME280;22981;43.080;25.550;2023-05-23T05:15:13;99425.19;;;12.34;82.78
37066;BME280;22981;43.080;25.550;2023-05-23T05:17:40;99411.76;;;12.34;82.83
37066;BME280;22981;43.080;25.550;2023-05-23T05:20:10;99424.97;;;12.59;83.00
37066;BME280;22981;43.080;25.550;2023-05-23T05:22:38;99423.70;;;12.76;82.95
37066;BME280;22981;43.080;25.550;2023-05-23T05:25:09;99426.81;;;12.94;82.65
37066;BME280;22981;43.080;25.550;2023-05-23T05:27:38;99420.75;;;13.13;82.55
37066;BME280;22981;43.080;25.550;2023-05-23T05:30:07;99422.48;;;13.31;82.52
37066;BME280;22981;43.080;25.550;2023-05-23T05:32:34;99421.92;;;13.43;82.48
37066;BME280;22981;43.080;25.550;2023-05-23T05:35:03;99416.45;;;13.52;82.64
37066;BME280;22981;43.080;25.550;2023-05-23T05:37:32;99420.72;;;13.65;82.69
37066;BME280;22981;43.080;25.550;2023-05-23T05:39:59;99411.54;;;13.77;82.68
37066;BME280;22981;43.080;25.550;2023-05-23T05:42:29;99413.64;;;13.90;82.71
37066;BME280;22981;43.080;25.550;2023-05-23T05:44:56;99415.69;;;13.99;82.84
37066;BME280;22981;43.080;25.550;2023-05-23T05:47:24;99423.14;;;14.09;82.94
37066;BME280;22981;43.080;25.550;2023-05-23T05:49:51;99416.83;;;14.18;83.05
37066;BME280;22981;43.080;25.550;2023-05-23T05:52:19;99415.10;;;14.28;83.27
37066;BME280;22981;43.080;25.550;2023-05-23T05:54:46;99410.98;;;14.40;83.20
37066;BME280;22981;43.080;25.550;2023-05-23T05:57:14;99408.23;;;14.52;83.17
37066;BME280;22981;43.080;25.550;2023-05-23T05:59:42;99415.44;;;14.66;83.32
37066;BME280;22981;43.080;25.550;2023-05-23T06:02:09;99412.39;;;14.79;83.46
37066;BME280;22981;43.080;25.550;2023-05-23T06:04:37;99402.88;;;14.93;83.43
37066;BME280;22981;43.080;25.550;2023-05-23T06:07:05;99404.66;;;15.07;83.27
37066;BME280;22981;43.080;25.550;2023-05-23T06:09:32;99404.27;;;15.18;83.01
37066;BME280;22981;43.080;25.550;2023-05-23T06:12:00;99411.12;;;15.28;82.89
37066;BME280;22981;43.080;25.550;2023-05-23T06:14:28;99409.11;;;15.40;83.06
37066;BME280;22981;43.080;25.550;2023-05-23T06:16:55;99405.70;;;15.50;83.40
37066;BME280;22981;43.080;25.550;2023-05-23T06:19:23;99406.91;;;15.62;83.31
37066;BME280;22981;43.080;25.550;2023-05-23T06:21:50;99403.84;;;15.75;83.38
37066;BME280;22981;43.080;25.550;2023-05-23T06:24:18;99404.23;;;15.86;83.41
37066;BME280;22981;43.080;25.550;2023-05-23T06:26:46;99402.96;;;15.94;83.12
37066;BME280;22981;43.080;25.550;2023-05-23T06:29:13;99409.52;;;16.03;83.08
37066;BME280;22981;43.080;25.550;2023-05-23T06:31:41;99406.89;;;16.13;82.94
37066;BME280;22981;43.080;25.550;2023-05-23T06:34:08;99408.83;;;16.18;83.11
37066;BME280;22981;43.080;25.550;2023-05-23T06:36:36;99405.65;;;16.26;83.11
37066;BME280;22981;43.080;25.550;2023-05-23T06:39:03;99408.45;;;16.39;82.49
37066;BME280;22981;43.080;25.550;2023-05-23T06:41:31;99399.35;;;16.52;82.24
37066;BME280;22981;43.080;25.550;2023-05-23T06:43:58;99399.98;;;16.65;81.68
37066;BME280;22981;43.080;25.550;2023-05-23T06:46:26;99400.88;;;16.73;81.39
37066;BME280;22981;43.080;25.550;2023-05-23T06:48:54;99405.52;;;16.80;81.18
37066;BME280;22981;43.080;25.550;2023-05-23T06:51:21;99402.59;;;16.89;80.71
37066;BME280;22981;43.080;25.550;2023-05-23T06:53:49;99392.36;;;16.99;80.63
37066;BME280;22981;43.080;25.550;2023-05-23T06:56:16;99397.28;;;17.12;80.30
37066;BME280;22981;43.080;25.550;2023-05-23T06:58:44;99386.77;;;17.21;79.88
37066;BME280;22981;43.080;25.550;2023-05-23T07:01:12;99390.06;;;17.33;79.37
37066;BME280;22981;43.080;25.550;2023-05-23T07:03:39;99394.41;;;17.42;78.77
37066;BME280;22981;43.080;25.550;2023-05-23T07:06:08;99388.75;;;17.46;78.17
37066;BME280;22981;43.080;25.550;2023-05-23T07:08:36;99389.57;;;17.49;78.10
37066;BME280;22981;43.080;25.550;2023-05-23T07:11:04;99389.05;;;17.57;78.04
37066;BME280;22981;43.080;25.550;2023-05-23T07:13:32;99384.72;;;17.59;78.08
37066;BME280;22981;43.080;25.550;2023-05-23T07:16:00;99383.37;;;17.61;78.16
37066;BME280;22981;43.080;25.550;2023-05-23T07:18:27;99383.65;;;17.67;78.04
37066;BME280;22981;43.080;25.550;2023-05-23T07:20:55;99376.39;;;17.75;77.84
37066;BME280;22981;43.080;25.550;2023-05-23T07:23:24;99378.04;;;17.87;77.34
37066;BME280;22981;43.080;25.550;2023-05-23T07:25:52;99377.22;;;17.96;77.03
37066;BME280;22981;43.080;25.550;2023-05-23T07:28:19;99370.17;;;17.98;77.12
37066;BME280;22981;43.080;25.550;2023-05-23T07:30:47;99368.81;;;17.98;76.77
37066;BME280;22981;43.080;25.550;2023-05-23T07:33:15;99369.64;;;18.01;76.24
37066;BME280;22981;43.080;25.550;2023-05-23T07:35:43;99365.58;;;18.14;75.95
37066;BME280;22981;43.080;25.550;2023-05-23T07:38:11;99365.28;;;18.28;75.56
37066;BME280;22981;43.080;25.550;2023-05-23T07:40:38;99362.57;;;18.43;75.17
37066;BME280;22981;43.080;25.550;2023-05-23T07:43:06;99363.61;;;18.58;74.57
37066;BME280;22981;43.080;25.550;2023-05-23T07:45:33;99365.78;;;18.71;74.14
37066;BME280;22981;43.080;25.550;2023-05-23T07:48:01;99358.44;;;18.79;73.42
37066;BME280;22981;43.080;25.550;2023-05-23T07:50:29;99361.42;;;18.85;72.84
37066;BME280;22981;43.080;25.550;2023-05-23T07:52:57;99357.89;;;18.85;72.66
37066;BME280;22981;43.080;25.550;2023-05-23T07:55:24;99360.61;;;18.82;72.33
37066;BME280;22981;43.080;25.550;2023-05-23T07:57:52;99358.42;;;18.89;72.16
37066;BME280;22981;43.080;25.550;2023-05-23T08:00:21;99361.34;;;19.00;71.95
37066;BME280;22981;43.080;25.550;2023-05-23T08:02:48;99362.39;;;19.10;71.71
37066;BME280;22981;43.080;25.550;2023-05-23T08:05:16;99361.81;;;19.23;71.06
37066;BME280;22981;43.080;25.550;2023-05-23T08:07:44;99358.77;;;19.32;69.89
37066;BME280;22981;43.080;25.550;2023-05-23T08:10:12;99345.42;;;19.41;68.98
37066;BME280;22981;43.080;25.550;2023-05-23T08:12:39;99351.08;;;19.49;68.16
37066;BME280;22981;43.080;25.550;2023-05-23T08:15:07;99351.55;;;19.57;67.29
37066;BME280;22981;43.080;25.550;2023-05-23T08:17:35;99355.06;;;19.67;66.89
37066;BME280;22981;43.080;25.550;2023-05-23T08:20:03;99350.39;;;19.75;66.29
37066;BME280;22981;43.080;25.550;2023-05-23T08:22:31;99347.58;;;19.86;66.00
37066;BME280;22981;43.080;25.550;2023-05-23T08:24:58;99346.17;;;19.93;65.15
37066;BME280;22981;43.080;25.550;2023-05-23T08:27:26;99349.39;;;19.98;65.02
37066;BME280;22981;43.080;25.550;2023-05-23T08:29:55;99344.16;;;20.07;65.26
37066;BME280;22981;43.080;25.550;2023-05-23T08:32:23;99343.55;;;20.15;65.51
37066;BME280;22981;43.080;25.550;2023-05-23T08:34:51;99342.37;;;20.26;65.66
37066;BME280;22981;43.080;25.550;2023-05-23T08:37:19;99342.27;;;20.34;65.16
37066;BME280;22981;43.080;25.550;2023-05-23T08:39:46;99339.22;;;20.43;64.95
37066;BME280;22981;43.080;25.550;2023-05-23T08:42:14;99326.64;;;20.52;64.45
37066;BME280;22981;43.080;25.550;2023-05-23T08:44:41;99328.99;;;20.59;64.04
37066;BME280;22981;43.080;25.550;2023-05-23T08:47:09;99330.58;;;20.65;63.92
37066;BME280;22981;43.080;25.550;2023-05-23T08:49:38;99329.95;;;20.70;63.10
37066;BME280;22981;43.080;25.550;2023-05-23T08:52:08;99338.59;;;20.78;62.58
37066;BME280;22981;43.080;25.550;2023-05-23T08:54:36;99334.14;;;20.84;62.31
37066;BME280;22981;43.080;25.550;2023-05-23T08:57:04;99334.08;;;20.89;62.37
37066;BME280;22981;43.080;25.550;2023-05-23T08:59:33;99336.20;;;20.95;62.41
37066;BME280;22981;43.080;25.550;2023-05-23T09:02:02;99333.67;;;21.01;62.59
37066;BME280;22981;43.080;25.550;2023-05-23T09:04:31;99334.41;;;21.07;61.41
37066;BME280;22981;43.080;25.550;2023-05-23T09:06:59;99325.16;;;21.08;61.34
37066;BME280;22981;43.080;25.550;2023-05-23T09:09:27;99329.17;;;21.13;61.63
37066;BME280;22981;43.080;25.550;2023-05-23T09:11:55;99327.98;;;21.19;61.38
37066;BME280;22981;43.080;25.550;2023-05-23T09:14:25;99325.70;;;21.29;61.10
37066;BME280;22981;43.080;25.550;2023-05-23T09:16:59;99329.97;;;21.37;60.34
37066;BME280;22981;43.080;25.550;2023-05-23T09:19:24;99331.98;;;21.48;60.18
37066;BME280;22981;43.080;25.550;2023-05-23T09:21:53;99329.09;;;21.58;60.59
37066;BME280;22981;43.080;25.550;2023-05-23T09:24:21;99329.53;;;21.65;60.61
37066;BME280;22981;43.080;25.550;2023-05-23T09:26:49;99321.50;;;21.74;60.48
37066;BME280;22981;43.080;25.550;2023-05-23T09:29:20;99321.72;;;21.78;60.08
37066;BME280;22981;43.080;25.550;2023-05-23T09:31:48;99325.76;;;21.64;59.82
37066;BME280;22981;43.080;25.550;2023-05-23T09:34:15;99322.56;;;21.59;59.77
37066;BME280;22981;43.080;25.550;2023-05-23T09:36:45;99320.33;;;21.61;59.71
37066;BME280;22981;43.080;25.550;2023-05-23T09:39:12;99331.95;;;21.67;59.78
37066;BME280;22981;43.080;25.550;2023-05-23T09:41:40;99322.53;;;21.78;59.62
37066;BME280;22981;43.080;25.550;2023-05-23T09:44:08;99277.98;;;21.53;59.27
37066;BME280;22981;43.080;25.550;2023-05-23T09:46:36;99316.90;;;21.88;59.16
37066;BME280;22981;43.080;25.550;2023-05-23T09:49:13;99319.48;;;21.98;59.21
37066;BME280;22981;43.080;25.550;2023-05-23T09:51:35;99321.73;;;22.10;58.71
37066;BME280;22981;43.080;25.550;2023-05-23T09:54:03;99314.45;;;22.22;58.42
37066;BME280;22981;43.080;25.550;2023-05-23T09:56:31;99310.82;;;22.27;57.98
37066;BME280;22981;43.080;25.550;2023-05-23T09:59:01;99310.23;;;22.30;58.01
37066;BME280;22981;43.080;25.550;2023-05-23T10:01:31;99309.57;;;22.35;57.79
37066;BME280;22981;43.080;25.550;2023-05-23T10:04:00;99301.88;;;22.40;57.45
37066;BME280;22981;43.080;25.550;2023-05-23T10:06:50;99299.53;;;22.47;57.02
37066;BME280;22981;43.080;25.550;2023-05-23T10:09:16;99300.87;;;22.49;56.58
37066;BME280;22981;43.080;25.550;2023-05-23T10:12:20;99300.80;;;22.38;55.81
37066;BME280;22981;43.080;25.550;2023-05-23T10:14:24;99300.87;;;22.19;55.84
37066;BME280;22981;43.080;25.550;2023-05-23T10:17:06;99297.23;;;22.08;56.32
37066;BME280;22981;43.080;25.550;2023-05-23T10:22:13;99298.50;;;22.15;56.56
37066;BME280;22981;43.080;25.550;2023-05-23T10:24:46;99301.90;;;22.23;56.41
37066;BME280;22981;43.080;25.550;2023-05-23T10:27:14;99297.91;;;22.18;55.97
37066;BME280;22981;43.080;25.550;2023-05-23T10:29:43;99292.00;;;22.11;55.79
37066;BME280;22981;43.080;25.550;2023-05-23T10:32:11;99296.27;;;22.17;55.67
37066;BME280;22981;43.080;25.550;2023-05-23T10:34:46;99281.38;;;22.26;54.89
37066;BME280;22981;43.080;25.550;2023-05-23T10:37:34;99281.20;;;22.36;54.68
37066;BME280;22981;43.080;25.550;2023-05-23T10:40:02;99284.74;;;22.50;54.46
37066;BME280;22981;43.080;25.550;2023-05-23T10:42:44;99280.16;;;22.62;53.24
37066;BME280;22981;43.080;25.550;2023-05-23T10:45:22;99279.80;;;22.66;53.07
37066;BME280;22981;43.080;25.550;2023-05-23T10:47:53;99282.81;;;22.65;52.84
37066;BME280;22981;43.080;25.550;2023-05-23T10:50:31;99274.55;;;22.70;52.66
37066;BME280;22981;43.080;25.550;2023-05-23T10:53:02;99271.05;;;22.67;53.10
37066;BME280;22981;43.080;25.550;2023-05-23T10:55:34;99273.22;;;22.67;53.33
37066;BME280;22981;43.080;25.550;2023-05-23T10:58:14;99264.08;;;22.74;53.39
37066;BME280;22981;43.080;25.550;2023-05-23T11:00:52;99267.36;;;22.60;53.79
37066;BME280;22981;43.080;25.550;2023-05-23T11:06:01;99264.63;;;22.19;54.98
37066;BME280;22981;43.080;25.550;2023-05-23T11:08:36;99269.06;;;22.15;54.91
37066;BME280;22981;43.080;25.550;2023-05-23T11:11:05;99263.38;;;22.28;54.00
37066;BME280;22981;43.080;25.550;2023-05-23T11:13:54;99264.67;;;22.30;53.97
37066;BME280;22981;43.080;25.550;2023-05-23T11:16:41;99259.63;;;22.23;53.96
37066;BME280;22981;43.080;25.550;2023-05-23T11:22:00;99259.55;;;21.80;56.33
37066;BME280;22981;43.080;25.550;2023-05-23T11:24:50;99270.80;;;21.59;57.57
37066;BME280;22981;43.080;25.550;2023-05-23T11:27:32;99264.53;;;21.42;58.47
37066;BME280;22981;43.080;25.550;2023-05-23T11:30:13;99266.86;;;21.30;58.33
37066;BME280;22981;43.080;25.550;2023-05-23T11:32:52;99263.94;;;21.24;58.13
37066;BME280;22981;43.080;25.550;2023-05-23T11:35:11;99264.48;;;21.23;58.09
37066;BME280;22981;43.080;25.550;2023-05-23T11:37:39;99260.69;;;21.24;57.95
37066;BME280;22981;43.080;25.550;2023-05-23T11:40:25;99262.52;;;21.29;57.55
37066;BME280;22981;43.080;25.550;2023-05-23T11:42:54;99262.52;;;21.29;57.12
37066;BME280;22981;43.080;25.550;2023-05-23T11:45:22;99269.66;;;21.25;57.10
37066;BME280;22981;43.080;25.550;2023-05-23T11:47:50;99271.13;;;21.17;57.18
37066;BME280;22981;43.080;25.550;2023-05-23T11:50:18;99279.16;;;21.06;57.61
37066;BME280;22981;43.080;25.550;2023-05-23T11:52:46;99285.06;;;20.94;58.44
37066;BME280;22981;43.080;25.550;2023-05-23T11:55:21;99291.55;;;20.74;59.72
37066;BME280;22981;43.080;25.550;2023-05-23T11:57:45;99290.79;;;20.42;61.03
37066;BME280;22981;43.080;25.550;2023-05-23T12:00:13;99285.42;;;20.11;62.27
37066;BME280;22981;43.080;25.550;2023-05-23T12:02:42;99282.64;;;19.87;63.58
37066;BME280;22981;43.080;25.550;2023-05-23T12:05:12;99276.05;;;19.66;64.81
37066;BME280;22981;43.080;25.550;2023-05-23T12:07:41;99274.50;;;19.50;65.98
37066;BME280;22981;43.080;25.550;2023-05-23T12:10:09;99271.59;;;19.39;67.11
37066;BME280;22981;43.080;25.550;2023-05-23T12:12:41;99264.08;;;19.28;68.08
37066;BME280;22981;43.080;25.550;2023-05-23T12:15:12;99267.34;;;19.22;69.00
37066;BME280;22981;43.080;25.550;2023-05-23T12:17:45;99264.12;;;19.18;69.77
37066;BME280;22981;43.080;25.550;2023-05-23T12:20:18;99265.52;;;19.13;70.59
37066;BME280;22981;43.080;25.550;2023-05-23T12:22:46;99265.77;;;19.14;70.98
37066;BME280;22981;43.080;25.550;2023-05-23T12:25:16;99255.17;;;19.17;70.91
37066;BME280;22981;43.080;25.550;2023-05-23T12:27:46;99247.02;;;19.20;70.79
37066;BME280;22981;43.080;25.550;2023-05-23T12:30:15;99239.65;;;19.25;70.92
37066;BME280;22981;43.080;25.550;2023-05-23T12:32:44;99239.06;;;19.31;71.17
37066;BME280;22981;43.080;25.550;2023-05-23T12:35:15;99233.11;;;19.32;71.48
37066;BME280;22981;43.080;25.550;2023-05-23T12:37:45;99234.69;;;19.35;71.83
37066;BME280;22981;43.080;25.550;2023-05-23T12:40:15;99233.02;;;19.42;72.13
37066;BME280;22981;43.080;25.550;2023-05-23T12:42:50;99235.98;;;19.45;72.30
37066;BME280;22981;43.080;25.550;2023-05-23T12:45:22;99236.23;;;19.49;72.73
37066;BME280;22981;43.080;25.550;2023-05-23T12:47:50;99233.52;;;19.49;72.88
37066;BME280;22981;43.080;25.550;2023-05-23T12:50:17;99240.31;;;19.49;73.41
37066;BME280;22981;43.080;25.550;2023-05-23T12:52:45;99235.40;;;19.48;73.95
37066;BME280;22981;43.080;25.550;2023-05-23T12:55:13;99226.45;;;19.48;74.07
37066;BME280;22981;43.080;25.550;2023-05-23T12:57:40;99226.19;;;19.49;74.03
37066;BME280;22981;43.080;25.550;2023-05-23T13:00:08;99216.94;;;19.50;74.16
37066;BME280;22981;43.080;25.550;2023-05-23T13:02:37;99218.54;;;19.54;73.81
37066;BME280;22981;43.080;25.550;2023-05-23T13:05:05;99216.56;;;19.65;73.41
37066;BME280;22981;43.080;25.550;2023-05-23T13:07:33;99213.23;;;19.73;73.05
37066;BME280;22981;43.080;25.550;2023-05-23T13:10:01;99221.63;;;19.76;73.00
37066;BME280;22981;43.080;25.550;2023-05-23T13:12:29;99155.11;;;19.42;73.00
37066;BME280;22981;43.080;25.550;2023-05-23T13:14:56;99210.50;;;19.75;73.26
37066;BME280;22981;43.080;25.550;2023-05-23T13:17:24;99217.84;;;19.75;73.30